sensor_id;sensor_type;location;lat;lon;timestamp;temperature;humidity
26613;DHT22;14248;57.652;11.908;2023-02-28T11:16:33;10.40;81.40
26613;DHT22;14248;57.652;11.908;2023-02-28T12:46:41;6.80;99.90
26613;DHT22;14248;57.652;11.908;2023-02-28T12:49:16;10.60;99.90
26613;DHT22;14248;57.652;11.908;2023-02-28T12:51:45;10.90;99.90
26613;DHT22;14248;57.652;11.908;2023-02-28T12:54:41;11.30;99.90
26613;DHT22;14248;57.652;11.908;2023-02-28T12:57:36;11.70;99.90
26613;DHT22;14248;57.652;11.908;2023-02-28T13:00:10;12.20;99.90
26613;DHT22;14248;57.652;11.908;2023-02-28T13:09:04;13.40;99.90
26613;DHT22;14248;57.652;11.908;2023-02-28T13:14:36;14.00;99.90
26613;DHT22;14248;57.652;11.908;2023-02-28T13:22:36;15.10;98.30
26613;DHT22;14248;57.652;11.908;2023-02-28T13:31:16;16.10;96.10
26613;DHT22;14248;57.652;11.908;2023-02-28T13:41:41;16.60;90.10
26613;DHT22;14248;57.652;11.908;2023-02-28T13:44:36;16.60;87.10
26613;DHT22;14248;57.652;11.908;2023-02-28T13:47:23;16.70;88.00
26613;DHT22;14248;57.652;11.908;2023-02-28T13:49:53;16.90;89.00
26613;DHT22;14248;57.652;11.908;2023-02-28T13:52:21;17.20;88.30
26613;DHT22;14248;57.652;11.908;2023-02-28T13:57:57;17.60;85.10
26613;DHT22;14248;57.652;11.908;2023-02-28T14:05:29;18.00;81.80
26613;DHT22;14248;57.652;11.908;2023-02-28T14:08:03;18.10;82.00
26613;DHT22;14248;57.652;11.908;2023-02-28T14:10:33;18.10;81.20
26613;DHT22;14248;57.652;11.908;2023-02-28T14:13:03;18.20;81.60
26613;DHT22;14248;57.652;11.908;2023-02-28T14:15:55;18.30;80.60
26613;DHT22;14248;57.652;11.908;2023-02-28T14:20:54;18.50;80.30
26613;DHT22;14248;57.652;11.908;2023-02-28T14:32:35;18.70;77.00
26613;DHT22;14248;57.652;11.908;2023-02-28T14:35:20;18.60;75.80
26613;DHT22;14248;57.652;11.908;2023-02-28T14:37:48;18.50;75.80
26613;DHT22;14248;57.652;11.908;2023-02-28T14:40:37;18.50;76.10
26613;DHT22;14248;57.652;11.908;2023-02-28T14:43:06;18.70;74.30
26613;DHT22;14248;57.652;11.908;2023-02-28T14:45:59;18.80;75.00
26613;DHT22;14248;57.652;11.908;2023-02-28T14:48:38;19.10;75.50
26613;DHT22;14248;57.652;11.908;2023-02-28T14:51:06;19.30;73.90
26613;DHT22;14248;57.652;11.908;2023-02-28T14:53:36;19.40;74.20
26613;DHT22;14248;57.652;11.908;2023-02-28T14:56:02;19.60;73.20
26613;DHT22;14248;57.652;11.908;2023-02-28T14:58:31;19.70;72.40
26613;DHT22;14248;57.652;11.908;2023-02-28T15:01:01;19.80;72.80
26613;DHT22;14248;57.652;11.908;2023-02-28T15:03:37;19.90;72.80
26613;DHT22;14248;57.652;11.908;2023-02-28T15:06:13;20.00;72.30
26613;DHT22;14248;57.652;11.908;2023-02-28T15:09:15;20.00;71.40
26613;DHT22;14248;57.652;11.908;2023-02-28T15:11:46;20.00;71.00
26613;DHT22;14248;57.652;11.908;2023-02-28T15:14:19;20.00;70.90
26613;DHT22;14248;57.652;11.908;2023-02-28T15:17:00;19.90;70.20
26613;DHT22;14248;57.652;11.908;2023-02-28T15:19:34;19.80;69.70
26613;DHT22;14248;57.652;11.908;2023-02-28T15:22:15;19.70;69.80
26613;DHT22;14248;57.652;11.908;2023-02-28T15:24:53;19.60;69.90
26613;DHT22;14248;57.652;11.908;2023-02-28T15:27:26;19.60;69.40
26613;DHT22;14248;57.652;11.908;2023-02-28T15:30:07;19.60;69.60
26613;DHT22;14248;57.652;11.908;2023-02-28T15:32:36;19.50;68.80
26613;DHT22;14248;57.652;11.908;2023-02-28T15:38:23;19.40;69.40
26613;DHT22;14248;57.652;11.908;2023-02-28T15:40:54;19.30;69.30
26613;DHT22;14248;57.652;11.908;2023-02-28T15:46:11;19.20;69.30
26613;DHT22;14248;57.652;11.908;2023-02-28T15:48:52;19.10;69.70
26613;DHT22;14248;57.652;11.908;2023-02-28T15:51:24;19.10;69.50
26613;DHT22;14248;57.652;11.908;2023-02-28T15:54:28;18.80;69.50
26613;DHT22;14248;57.652;11.908;2023-02-28T15:57:07;18.20;69.80
26613;DHT22;14248;57.652;11.908;2023-02-28T15:59:36;17.40;70.40
26613;DHT22;14248;57.652;11.908;2023-02-28T16:02:17;16.50;71.10
26613;DHT22;14248;57.652;11.908;2023-02-28T16:05:22;15.30;72.80
26613;DHT22;14248;57.652;11.908;2023-02-28T16:07:57;14.00;75.20
26613;DHT22;14248;57.652;11.908;2023-02-28T16:10:25;13.00;77.60
